Time;durP1;ratioP1;P1;durP2;ratioP2;P2;SDS_P1;SDS_P2;PMS_P1;PMS_P2;Temp;Humidity;BMP_temperature;BMP_pressure;BME280_temperature;BME280_humidity;BME280_pressure;Samples;Min_cycle;Max_cycle;Signal;HPM_P1;HPM_P2
2021/03/11 00:02:17;;;;;;;0.28;0.28;;;;;;;-0.59;73.65;93195.78;5111459;28;20094;-45
2021/03/11 00:04:44;;;;;;;0.40;0.40;;;;;;;-0.58;73.87;93191.06;5109991;28;20020;-44
2021/03/11 00:07:09;;;;;;;0.20;0.20;;;;;;;-0.64;74.24;93185.63;5111240;28;20066;-46
2021/03/11 00:09:35;;;;;;;0.20;0.20;;;;;;;-0.52;73.76;93197.28;5111451;28;20431;-46
2021/03/11 00:12:00;;;;;;;0.30;0.30;;;;;;;-0.49;72.53;93207.16;5112038;28;20032;-48
2021/03/11 00:14:26;;;;;;;0.25;0.22;;;;;;;-0.48;74.07;93208.66;5115143;28;20035;-43
2021/03/11 00:16:51;;;;;;;0.30;0.30;;;;;;;-0.59;72.78;93195.78;5114840;28;20488;-45
2021/03/11 00:19:16;;;;;;;0.20;0.20;;;;;;;-0.55;72.39;93209.09;5114773;28;20102;-46
2021/03/11 00:21:42;;;;;;;0.22;0.22;;;;;;;-0.54;72.50;93208.59;5114824;28;20027;-45
2021/03/11 00:24:08;;;;;;;0.20;0.20;;;;;;;-0.49;73.09;93218.75;5114785;28;20024;-45
2021/03/11 00:26:34;;;;;;;0.20;0.20;;;;;;;-0.59;72.08;93214.00;5114768;28;20084;-44
2021/03/11 00:28:59;;;;;;;0.30;0.30;;;;;;;-0.54;71.88;93207.88;5114571;28;20036;-44
2021/03/11 00:31:24;;;;;;;0.30;0.30;;;;;;;-0.60;71.67;93210.53;5114611;28;20027;-44
2021/03/11 00:33:50;;;;;;;0.20;0.20;;;;;;;-0.58;71.66;93207.34;5114573;28;20028;-45
2021/03/11 00:36:15;;;;;;;0.15;0.15;;;;;;;-0.71;72.16;93202.31;5114604;28;20015;-43
2021/03/11 00:38:40;;;;;;;0.30;0.30;;;;;;;-0.80;72.80;93197.84;5114379;28;20389;-44
2021/03/11 00:41:06;;;;;;;0.20;0.20;;;;;;;-0.73;72.66;93207.50;5114452;28;20055;-44
2021/03/11 00:43:31;;;;;;;0.40;0.40;;;;;;;-0.76;72.59;93203.06;5114509;28;20076;-43
2021/03/11 00:45:57;;;;;;;0.40;0.40;;;;;;;-0.77;72.94;93201.56;5114169;28;20123;-44
2021/03/11 00:48:22;;;;;;;0.20;0.20;;;;;;;-0.85;72.14;93193.13;5114342;28;20473;-45
2021/03/11 00:50:47;;;;;;;0.20;0.20;;;;;;;-0.82;72.73;93203.00;5114279;28;20031;-45
2021/03/11 00:53:13;;;;;;;0.20;0.20;;;;;;;-0.80;72.83;93207.91;5114289;28;20016;-44
2021/03/11 00:55:38;;;;;;;0.40;0.40;;;;;;;-0.83;73.55;93215.06;5114215;28;20476;-45
2021/03/11 00:58:04;;;;;;;0.30;0.30;;;;;;;-0.79;72.47;93210.16;5095830;28;20193;-44
2021/03/11 01:00:29;;;;;;;0.30;0.30;;;;;;;-0.79;72.22;93199.34;5114085;28;20030;-45
2021/03/11 01:02:54;;;;;;;0.77;0.77;;;;;;;-0.86;71.57;93182.75;5114080;28;20034;-44
2021/03/11 01:05:23;;;;;;;0.30;0.30;;;;;;;-0.95;71.94;93193.75;5111745;28;20056;-44
2021/03/11 01:07:49;;;;;;;0.20;0.20;;;;;;;-1.03;72.19;93179.19;5114060;28;20034;-45
2021/03/11 01:10:14;;;;;;;0.20;0.20;;;;;;;-0.89;71.48;93183.72;5113796;28;20537;-46
2021/03/11 01:12:39;;;;;;;0.40;0.30;;;;;;;-0.88;70.40;93182.50;5113770;28;20028;-45
2021/03/11 01:15:08;;;;;;;0.40;0.40;;;;;;;-0.87;69.76;93170.44;5113743;28;20019;-44
2021/03/11 01:17:34;;;;;;;0.35;0.35;;;;;;;-0.93;69.56;93175.06;5113963;28;20051;-45
2021/03/11 01:20:00;;;;;;;0.20;0.20;;;;;;;-0.95;69.39;93175.53;5113791;28;20539;-43
2021/03/11 01:22:25;;;;;;;0.22;0.22;;;;;;;-0.98;69.27;93175.78;5113291;28;20385;-43
2021/03/11 01:24:50;;;;;;;0.20;0.20;;;;;;;-0.99;69.61;93185.13;5113643;28;20023;-45
2021/03/11 01:27:16;;;;;;;0.43;0.43;;;;;;;-0.99;69.63;93201.38;5113567;28;20030;-44
2021/03/11 01:29:41;;;;;;;0.20;0.20;;;;;;;-1.23;70.13;93168.41;5113447;28;20028;-45
2021/03/11 01:32:07;;;;;;;0.30;0.30;;;;;;;-0.98;70.34;93206.34;5095536;28;20024;-46
2021/03/11 01:34:32;;;;;;;0.20;0.20;;;;;;;-1.02;70.06;93194.22;5113346;28;20534;-44
2021/03/11 01:36:58;;;;;;;0.20;0.20;;;;;;;-1.14;70.39;93192.63;5111680;28;20038;-43
2021/03/11 01:39:23;;;;;;;2.58;0.60;;;;;;;-1.12;71.13;93184.75;5113426;28;20022;-44
2021/03/11 01:41:48;;;;;;;0.20;0.20;;;;;;;-1.18;69.96;93171.19;5113284;28;20033;-45
2021/03/11 01:44:14;;;;;;;0.20;0.20;;;;;;;-1.23;69.95;93188.13;5113038;28;20495;-44
2021/03/11 01:46:39;;;;;;;0.73;0.73;;;;;;;-1.23;70.79;93184.66;5113227;28;20027;-44
2021/03/11 01:49:05;;;;;;;0.32;0.32;;;;;;;-1.25;71.27;93195.97;5113410;28;20076;-44
2021/03/11 01:51:31;;;;;;;0.25;0.25;;;;;;;-1.29;71.73;93197.41;5113000;28;20027;-44
2021/03/11 01:53:56;;;;;;;0.30;0.30;;;;;;;-1.47;71.36;93176.81;5112873;28;20026;-46
2021/03/11 01:56:22;;;;;;;0.17;0.17;;;;;;;-1.40;71.67;93195.34;5112916;28;20027;-45
2021/03/11 01:58:47;;;;;;;0.35;0.35;;;;;;;-1.35;71.22;93207.47;5112885;28;20035;-46
2021/03/11 02:01:13;;;;;;;0.45;0.45;;;;;;;-1.36;71.27;93195.13;5113065;28;20447;-44
2021/03/11 02:03:38;;;;;;;0.50;0.50;;;;;;;-1.36;71.18;93201.28;5112908;28;20050;-45
2021/03/11 02:06:04;;;;;;;0.88;0.47;;;;;;;-1.36;71.65;93200.53;5112679;28;20072;-47
2021/03/11 02:08:30;;;;;;;0.20;0.20;;;;;;;-1.39;71.27;93204.22;5112768;28;20026;-43
2021/03/11 02:10:55;;;;;;;0.20;0.20;;;;;;;-1.33;70.98;93199.59;5112617;28;20023;-44
2021/03/11 02:13:39;;;;;;;1.42;0.65;;;;;;;-1.29;70.99;93194.72;5094722;28;20024;-45
2021/03/11 02:16:06;;;;;;;0.30;0.30;;;;;;;-1.25;70.33;93187.88;5094664;28;20419;-44
2021/03/11 02:18:36;;;;;;;0.20;0.20;;;;;;;-1.28;70.10;93194.25;5112503;28;20038;-43
2021/03/11 02:21:11;;;;;;;0.25;0.25;;;;;;;-1.42;70.75;93189.69;5094580;28;20106;-46
2021/03/11 02:24:22;;;;;;;0.30;0.30;;;;;;;-1.42;70.55;93205.91;5112724;28;20027;-45
2021/03/11 02:27:22;;;;;;;0.57;0.57;;;;;;;-1.43;71.02;93204.44;5017655;28;20066;-44
2021/03/11 02:29:48;;;;;;;0.30;0.30;;;;;;;-1.45;71.00;93204.16;5112619;28;20031;-44
2021/03/11 02:32:14;;;;;;;0.20;0.20;;;;;;;-1.42;70.98;93211.34;5112566;28;20480;-45
2021/03/11 02:34:52;;;;;;;2.15;0.40;;;;;;;-1.41;71.17;93209.38;5093422;28;20028;-45
2021/03/11 02:37:22;;;;;;;0.30;0.30;;;;;;;-1.54;72.12;93213.19;5112134;28;20502;-46
2021/03/11 02:39:57;;;;;;;0.30;0.30;;;;;;;-1.54;71.69;93212.47;5112382;28;20043;-44
2021/03/11 02:42:23;;;;;;;0.30;0.30;;;;;;;-1.52;72.87;93218.84;5094073;28;20061;-44
2021/03/11 02:44:50;;;;;;;0.30;0.30;;;;;;;-1.47;72.17;93224.81;5112024;28;20413;-45
2021/03/11 02:47:15;;;;;;;0.20;0.20;;;;;;;-1.47;71.95;93230.97;5094118;28;20047;-45
2021/03/11 02:49:41;;;;;;;0.20;0.20;;;;;;;-1.45;71.81;93231.22;5112145;28;20164;-44
2021/03/11 02:52:07;;;;;;;0.20;0.20;;;;;;;-1.52;71.89;93224.28;5094056;28;20023;-45
2021/03/11 02:54:34;;;;;;;0.13;0.13;;;;;;;-1.41;72.00;93233.75;5093923;28;20028;-46
2021/03/11 02:57:01;;;;;;;0.30;0.30;;;;;;;-1.44;72.13;93240.09;5111886;28;20476;-44
2021/03/11 02:59:29;;;;;;;0.30;0.30;;;;;;;-1.39;72.30;93240.19;5111992;28;20023;-45
2021/03/11 03:01:55;;;;;;;1.85;0.45;;;;;;;-1.47;72.20;93233.69;5111983;28;20051;-44
2021/03/11 03:04:24;;;;;;;0.55;0.30;;;;;;;-1.43;71.87;93241.59;5093935;28;20027;-44
2021/03/11 03:06:50;;;;;;;4.80;0.98;;;;;;;-1.45;71.71;93246.75;5092590;28;20551;-44
2021/03/11 03:09:17;;;;;;;0.20;0.20;;;;;;;-1.48;72.14;93253.09;5093475;28;20102;-43
2021/03/11 03:11:43;;;;;;;0.20;0.20;;;;;;;-1.45;72.51;93255.59;5093831;28;20031;-45
2021/03/11 03:14:08;;;;;;;0.20;0.20;;;;;;;-1.41;71.88;93250.75;5093705;28;20049;-45
2021/03/11 03:16:36;;;;;;;0.28;0.28;;;;;;;-1.56;70.89;93241.97;5093740;28;20531;-45
2021/03/11 03:19:02;;;;;;;0.20;0.20;;;;;;;-1.46;70.36;93264.22;5093841;28;20031;-45
2021/03/11 03:21:27;;;;;;;0.30;0.30;;;;;;;-1.41;69.59;93274.34;5093776;28;20535;-45
2021/03/11 03:23:53;;;;;;;0.20;0.20;;;;;;;-1.41;69.71;93277.06;5093723;28;20061;-44
2021/03/11 03:26:18;;;;;;;0.20;0.20;;;;;;;-1.42;70.09;93279.03;5093811;28;20401;-44
2021/03/11 03:28:44;;;;;;;0.20;0.20;;;;;;;-1.54;70.18;93258.47;5111941;28;20492;-44
2021/03/11 03:31:10;;;;;;;0.20;0.20;;;;;;;-1.41;70.05;93279.78;5093521;28;20106;-44
2021/03/11 03:33:36;;;;;;;0.30;0.30;;;;;;;-1.46;70.50;93270.38;5111890;28;20028;-44
2021/03/11 03:36:02;;;;;;;0.30;0.30;;;;;;;-1.45;70.18;93279.25;5111693;28;20027;-45
2021/03/11 03:38:27;;;;;;;1.27;1.20;;;;;;;-1.44;70.69;93272.59;5111640;28;20465;-44
2021/03/11 03:40:58;;;;;;;0.47;0.40;;;;;;;-1.52;71.03;93278.41;5093598;28;20032;-43
2021/03/11 03:43:30;;;;;;;0.55;0.55;;;;;;;-1.46;70.79;93269.63;5093554;28;20030;-46
2021/03/11 03:46:00;;;;;;;0.80;0.63;;;;;;;-1.59;71.25;93267.28;5112211;28;20130;-46
2021/03/11 03:48:47;;;;;;;0.20;0.20;;;;;;;-1.45;70.81;93271.84;5115535;28;20472;-46
2021/03/11 03:51:13;;;;;;;0.20;0.20;;;;;;;-1.41;70.86;93258.13;5115448;28;20407;-46
2021/03/11 03:53:47;;;;;;;0.20;0.20;;;;;;;-1.56;69.92;93248.09;5097220;28;20096;-47
2021/03/11 03:56:35;;;;;;;1.23;0.85;;;;;;;-1.51;70.74;93260.22;5115537;28;20039;-45
2021/03/11 03:59:05;;;;;;;0.15;0.15;;;;;;;-1.51;70.65;93262.91;5097373;28;20107;-44
2021/03/11 04:01:34;;;;;;;0.40;0.40;;;;;;;-1.52;70.38;93259.47;5097179;28;20020;-45
2021/03/11 04:04:02;;;;;;;0.20;0.20;;;;;;;-1.56;69.99;93272.47;5096930;28;20031;-44
2021/03/11 04:06:29;;;;;;;1.17;0.75;;;;;;;-1.61;69.91;93278.59;5096072;28;20046;-45
2021/03/11 04:08:55;;;;;;;0.20;0.20;;;;;;;-1.48;70.34;93283.63;5096325;28;20470;-44
2021/03/11 04:11:20;;;;;;;0.20;0.20;;;;;;;-1.58;70.18;93282.28;5096869;28;20102;-45
2021/03/11 04:13:47;;;;;;;0.20;0.20;;;;;;;-1.80;70.46;93268.50;5115141;28;20019;-46
2021/03/11 04:16:14;;;;;;;0.20;0.20;;;;;;;-1.64;70.16;93289.59;5096936;28;20016;-44
2021/03/11 04:18:39;;;;;;;0.20;0.20;;;;;;;-1.66;69.98;93289.31;5096667;28;20024;-46
2021/03/11 04:21:06;;;;;;;1.90;0.63;;;;;;;-1.71;70.39;93285.34;5114865;28;20031;-45
2021/03/11 04:23:33;;;;;;;0.15;0.15;;;;;;;-1.72;70.37;93288.53;5096857;28;20030;-45
2021/03/11 04:25:58;;;;;;;0.30;0.30;;;;;;;-1.63;70.47;93288.38;5096650;28;20031;-44
2021/03/11 04:28:24;;;;;;;0.30;0.30;;;;;;;-1.50;69.67;93290.75;5096624;28;20458;-45
2021/03/11 04:30:49;;;;;;;0.28;0.28;;;;;;;-1.56;69.89;93298.81;5096726;28;20024;-44
2021/03/11 04:33:15;;;;;;;0.40;0.40;;;;;;;-1.63;69.88;93299.97;5096416;28;20016;-45
2021/03/11 04:35:41;;;;;;;0.40;0.40;;;;;;;-1.60;67.89;93309.81;5096629;28;20023;-45
2021/03/11 04:38:06;;;;;;;0.30;0.30;;;;;;;-1.68;69.38;93308.75;5114723;28;20073;-45
2021/03/11 04:40:33;;;;;;;0.30;0.30;;;;;;;-1.74;69.26;93291.72;5096402;28;20416;-44
2021/03/11 04:42:59;;;;;;;0.35;0.35;;;;;;;-1.64;68.84;93303.88;5114506;28;20019;-44
2021/03/11 04:45:24;;;;;;;0.38;0.38;;;;;;;-1.62;68.15;93309.56;5096087;28;20043;-46
2021/03/11 04:47:50;;;;;;;0.20;0.20;;;;;;;-1.67;66.43;93302.09;5096345;28;20045;-43
2021/03/11 04:50:16;;;;;;;1.15;0.93;;;;;;;-1.66;67.25;93300.91;5114253;28;20066;-44
2021/03/11 04:52:42;;;;;;;0.68;0.68;;;;;;;-1.68;68.07;93305.28;5096261;28;20072;-44
2021/03/11 04:55:07;;;;;;;0.20;0.20;;;;;;;-1.68;67.78;93313.41;5096017;28;20751;-44
2021/03/11 04:57:33;;;;;;;1.45;0.95;;;;;;;-1.84;68.26;93306.56;5113270;28;20016;-45
2021/03/11 04:59:59;;;;;;;0.30;0.30;;;;;;;-1.78;67.20;93315.53;5095907;28;20051;-44
2021/03/11 05:02:31;;;;;;;0.20;0.20;;;;;;;-1.74;67.70;93315.31;5114061;28;20054;-46
2021/03/11 05:04:57;;;;;;;0.22;0.22;;;;;;;-1.69;67.88;93311.94;5095952;28;20019;-46
2021/03/11 05:07:22;;;;;;;0.30;0.30;;;;;;;-1.66;66.94;93316.38;5113880;28;20023;-45
2021/03/11 05:09:48;;;;;;;0.25;0.25;;;;;;;-1.63;66.05;93334.41;5113908;28;20028;-44
2021/03/11 05:12:13;;;;;;;0.20;0.20;;;;;;;-1.75;67.26;93308.41;5113808;28;20385;-45
2021/03/11 05:14:39;;;;;;;0.30;0.30;;;;;;;-1.62;66.38;93323.09;5113657;28;20411;-44
2021/03/11 05:17:04;;;;;;;0.20;0.20;;;;;;;-1.76;65.87;93326.63;5113733;28;20076;-46
2021/03/11 05:19:30;;;;;;;0.20;0.20;;;;;;;-1.80;65.89;93326.06;5113594;28;20043;-44
2021/03/11 05:21:55;;;;;;;0.20;0.20;;;;;;;-1.76;65.67;93323.16;5113712;28;20024;-44
2021/03/11 05:24:20;;;;;;;0.20;0.20;;;;;;;-1.70;65.73;93322.03;5113649;28;20039;-45
2021/03/11 05:26:46;;;;;;;0.20;0.20;;;;;;;-1.73;66.90;93331.06;5113590;28;20026;-46
2021/03/11 05:29:11;;;;;;;0.35;0.35;;;;;;;-1.76;66.46;93345.56;5113492;28;20477;-46
2021/03/11 05:31:37;;;;;;;1.15;1.05;;;;;;;-1.63;66.70;93354.09;5113531;28;20051;-45
2021/03/11 05:34:03;;;;;;;0.70;0.70;;;;;;;-1.57;66.25;93354.91;5113449;28;20020;-47
2021/03/11 05:36:28;;;;;;;0.73;0.73;;;;;;;-1.60;67.00;93355.09;5113349;28;20122;-44
2021/03/11 05:38:53;;;;;;;0.82;0.82;;;;;;;-1.76;66.27;93363.75;5113345;28;20028;-48
2021/03/11 05:41:20;;;;;;;0.80;0.80;;;;;;;-1.67;67.22;93363.63;5113404;28;20403;-44
2021/03/11 05:43:46;;;;;;;0.77;0.77;;;;;;;-1.48;66.76;93364.09;5113116;28;20119;-43
2021/03/11 05:46:12;;;;;;;0.40;0.40;;;;;;;-1.54;67.23;93369.47;5113093;28;20130;-44
2021/03/11 05:48:39;;;;;;;0.30;0.30;;;;;;;-1.42;65.46;93370.34;5113277;28;20015;-44
2021/03/11 05:51:05;;;;;;;1.58;1.48;;;;;;;-1.40;65.70;93374.06;5094935;28;20412;-46
2021/03/11 05:53:32;;;;;;;3.15;1.35;;;;;;;-1.28;66.46;93372.25;5095195;28;20088;-44
2021/03/11 05:55:57;;;;;;;0.30;0.30;;;;;;;-1.35;65.82;93383.47;5112892;28;20015;-45
2021/03/11 05:58:22;;;;;;;2.58;0.88;;;;;;;-1.11;66.47;93381.31;5095121;28;20028;-45
2021/03/11 06:00:48;;;;;;;0.20;0.20;;;;;;;-1.02;64.73;93378.47;5112993;28;20023;-46
2021/03/11 06:03:13;;;;;;;0.30;0.30;;;;;;;-1.11;65.20;93375.88;5094605;28;20026;-44
2021/03/11 06:05:39;;;;;;;0.40;0.40;;;;;;;-1.03;64.28;93393.22;5112756;28;20020;-44
2021/03/11 06:08:08;;;;;;;0.60;0.60;;;;;;;-1.04;64.71;93399.88;5094618;28;20015;-44
2021/03/11 06:10:35;;;;;;;0.25;0.25;;;;;;;-1.07;64.61;93409.69;5112764;28;20019;-44
2021/03/11 06:13:02;;;;;;;0.28;0.28;;;;;;;-1.02;64.58;93413.69;5112629;28;20031;-44
2021/03/11 06:15:32;;;;;;;3.13;1.25;;;;;;;-0.97;65.05;93423.81;5112630;28;20045;-44
2021/03/11 06:17:58;;;;;;;0.77;0.77;;;;;;;-1.05;64.55;93411.91;5112399;28;20097;-43
2021/03/11 06:20:23;;;;;;;0.60;0.60;;;;;;;-0.98;64.88;93422.34;5112568;28;20404;-43
2021/03/11 06:22:49;;;;;;;0.70;0.70;;;;;;;-1.06;65.81;93432.84;5112630;28;20020;-44
2021/03/11 06:25:15;;;;;;;1.58;1.48;;;;;;;-0.94;65.16;93448.03;5112387;28;20030;-44
2021/03/11 06:27:41;;;;;;;1.25;1.15;;;;;;;-1.02;65.26;93459.75;5112477;28;20464;-44
2021/03/11 06:30:07;;;;;;;2.92;1.48;;;;;;;-1.04;65.53;93454.78;5112312;28;20114;-44
2021/03/11 06:32:51;;;;;;;1.23;1.05;;;;;;;-1.08;65.21;93472.44;5112359;28;20026;-44
2021/03/11 06:35:20;;;;;;;0.40;0.40;;;;;;;-1.02;64.66;93470.59;5112400;28;20019;-46
2021/03/11 06:37:48;;;;;;;0.35;0.35;;;;;;;-0.91;64.00;93476.13;5112187;28;20504;-44
2021/03/11 06:40:15;;;;;;;0.30;0.30;;;;;;;-1.00;64.53;93478.97;5112310;28;20028;-45
2021/03/11 06:42:41;;;;;;;0.28;0.28;;;;;;;-0.97;65.12;93494.28;5112176;28;20016;-45
2021/03/11 06:45:20;;;;;;;1.45;1.35;;;;;;;-1.03;65.36;93494.22;5111951;28;20074;-43
2021/03/11 06:47:47;;;;;;;0.25;0.25;;;;;;;-1.01;66.51;93505.31;5112328;28;20043;-44
2021/03/11 06:50:13;;;;;;;0.20;0.20;;;;;;;-0.99;65.98;93507.56;5110970;28;20562;-45
2021/03/11 06:52:38;;;;;;;0.30;0.30;;;;;;;-1.00;65.52;93508.78;5111622;28;20027;-44
2021/03/11 06:55:07;;;;;;;0.35;0.35;;;;;;;-1.02;65.63;93505.81;5111779;28;20035;-44
2021/03/11 06:57:40;;;;;;;0.30;0.30;;;;;;;-0.93;65.03;93517.25;5112121;28;20523;-44
2021/03/11 07:00:26;;;;;;;0.57;0.57;;;;;;;-0.77;64.93;93521.41;5112007;28;20118;-44
2021/03/11 07:03:00;;;;;;;0.70;0.70;;;;;;;-0.70;65.49;93529.13;5111991;28;20035;-44
2021/03/11 07:05:27;;;;;;;2.85;0.55;;;;;;;-0.76;64.93;93533.75;5111944;28;20480;-45
2021/03/11 07:08:11;;;;;;;4.30;2.50;;;;;;;-0.67;65.45;93546.41;5111928;28;20106;-45
2021/03/11 07:10:37;;;;;;;1.98;1.85;;;;;;;-0.72;66.34;93557.94;5112036;28;20055;-44
2021/03/11 07:13:03;;;;;;;4.18;1.60;;;;;;;-0.69;65.78;93549.56;5111793;28;20031;-44
2021/03/11 07:15:31;;;;;;;0.57;0.57;;;;;;;-0.71;66.60;93554.72;5111793;28;20029;-47
2021/03/11 07:17:57;;;;;;;0.50;0.50;;;;;;;-0.83;66.41;93544.97;5111727;28;20479;-44
2021/03/11 07:20:24;;;;;;;0.30;0.30;;;;;;;-0.66;65.50;93561.44;5093971;28;20023;-46
2021/03/11 07:23:09;;;;;;;0.45;0.45;;;;;;;-0.67;65.51;93566.13;5115975;28;20043;-45
2021/03/11 07:25:39;;;;;;;0.20;0.20;;;;;;;-0.63;65.02;93568.66;5115981;28;20047;-44
2021/03/11 07:28:07;;;;;;;0.20;0.20;;;;;;;-0.51;64.81;93554.75;5115937;28;20031;-45
2021/03/11 07:30:48;;;;;;;0.38;0.38;;;;;;;-0.23;65.25;93558.53;5116058;28;20031;-44
2021/03/11 07:33:14;;;;;;;0.20;0.20;;;;;;;-0.09;64.49;93549.53;5115906;28;20027;-43
2021/03/11 07:35:40;;;;;;;0.60;0.55;;;;;;;0.13;63.87;93553.72;5115737;28;20419;-44
2021/03/11 07:38:07;;;;;;;0.38;0.38;;;;;;;0.69;64.18;93550.25;5097379;28;20035;-45
2021/03/11 07:40:33;;;;;;;0.30;0.30;;;;;;;0.95;61.27;93556.38;5097423;28;20035;-46
2021/03/11 07:43:00;;;;;;;0.30;0.30;;;;;;;1.24;61.84;93563.47;5097443;28;20030;-44
2021/03/11 07:45:26;;;;;;;0.40;0.40;;;;;;;1.32;59.86;93572.69;5097107;28;20472;-44
2021/03/11 07:47:52;;;;;;;1.00;0.90;;;;;;;1.45;61.28;93565.56;5115550;28;20031;-44
2021/03/11 07:50:18;;;;;;;0.75;0.52;;;;;;;1.36;60.64;93562.31;5115445;28;20065;-46
2021/03/11 07:52:43;;;;;;;1.02;1.00;;;;;;;1.48;59.54;93567.31;5115390;28;20114;-45
2021/03/11 07:55:10;;;;;;;0.85;0.75;;;;;;;2.06;59.00;93565.06;5115316;28;20024;-44
2021/03/11 07:57:39;;;;;;;0.20;0.20;;;;;;;2.15;58.54;93570.28;5115351;28;20103;-46
2021/03/11 08:00:05;;;;;;;;;;;;;;;2.69;57.25;93560.72;5097629;28;20072;-44
2021/03/11 08:02:31;;;;;;;7.13;0.85;;;;;;;3.39;55.36;93573.31;5097048;28;20337;-45
2021/03/11 08:04:57;;;;;;;0.40;0.40;;;;;;;3.96;53.15;93581.59;5097041;28;20019;-45
2021/03/11 08:07:24;;;;;;;0.88;0.88;;;;;;;4.19;51.84;93587.69;5096915;28;20012;-44
2021/03/11 08:09:54;;;;;;;0.20;0.20;;;;;;;3.97;50.00;93590.50;5115063;28;20050;-45
2021/03/11 08:12:37;;;;;;;0.40;0.40;;;;;;;3.79;52.92;93587.09;5115100;28;20503;-45
2021/03/11 08:15:26;;;;;;;2.60;0.88;;;;;;;3.92;51.96;93599.47;5114984;28;20023;-46
2021/03/11 08:17:54;;;;;;;0.68;0.68;;;;;;;3.97;51.88;93598.69;5101525;28;20441;-44
2021/03/11 08:20:19;;;;;;;0.40;0.40;;;;;;;4.79;50.54;93600.25;5114860;28;20500;-44
2021/03/11 08:22:55;;;;;;;0.65;0.55;;;;;;;5.66;49.84;93602.78;5114789;28;20030;-45
2021/03/11 08:25:41;;;;;;;0.30;0.30;;;;;;;6.19;46.93;93606.72;5114786;28;20020;-45
2021/03/11 08:28:07;;;;;;;0.20;0.20;;;;;;;6.96;45.85;93617.91;5114698;28;20019;-44
2021/03/11 08:30:39;;;;;;;0.40;0.40;;;;;;;7.72;43.55;93611.72;5114672;28;20069;-45
2021/03/11 08:33:12;;;;;;;0.52;0.52;;;;;;;7.50;43.94;93615.56;5113289;28;20028;-44
2021/03/11 08:35:44;;;;;;;0.30;0.30;;;;;;;7.09;45.17;93624.22;5114720;28;20027;-45
2021/03/11 08:38:22;;;;;;;1.98;0.70;;;;;;;6.57;44.64;93637.66;5114000;28;20019;-45
2021/03/11 08:41:02;;;;;;;0.80;0.80;;;;;;;6.64;45.57;93626.09;5113526;28;20031;-44
2021/03/11 08:43:40;;;;;;;1.00;0.85;;;;;;;5.98;45.42;93622.91;5114533;28;20404;-45
2021/03/11 08:46:12;;;;;;;0.55;0.50;;;;;;;6.09;46.35;93620.03;5114263;28;20044;-44
2021/03/11 08:48:47;;;;;;;0.38;0.38;;;;;;;6.89;46.36;93620.00;5114365;28;20106;-45
2021/03/11 08:51:32;;;;;;;1.38;0.60;;;;;;;7.47;43.43;93611.88;5114414;28;20469;-44
2021/03/11 08:53:59;;;;;;;0.60;0.55;;;;;;;7.88;44.12;93616.19;5114130;28;20027;-45
2021/03/11 08:56:27;;;;;;;0.63;0.63;;;;;;;7.74;42.89;93625.66;5114187;28;20499;-46
2021/03/11 08:58:59;;;;;;;0.50;0.50;;;;;;;7.69;43.27;93630.00;5114206;28;20043;-48
2021/03/11 09:01:28;;;;;;;0.50;0.50;;;;;;;7.92;43.07;93639.34;5114160;28;20031;-46
2021/03/11 09:03:53;;;;;;;2.17;1.93;;;;;;;7.10;43.88;93644.19;5114159;28;20038;-45
2021/03/11 09:06:20;;;;;;;0.85;0.85;;;;;;;6.88;44.40;93654.22;5114107;28;20490;-46
2021/03/11 09:08:52;;;;;;;3.45;1.85;;;;;;;7.64;43.13;93656.28;5096255;28;20094;-46
2021/03/11 09:11:25;;;;;;;2.22;1.40;;;;;;;7.48;43.64;93640.84;5114053;28;20031;-45
2021/03/11 09:13:52;;;;;;;0.88;0.88;;;;;;;7.27;43.00;93659.16;5113885;28;20059;-44
2021/03/11 09:16:27;;;;;;;3.40;1.25;;;;;;;6.89;45.18;93655.69;5113980;28;20027;-45
2021/03/11 09:19:02;;;;;;;0.98;0.82;;;;;;;7.19;45.70;93655.50;5113842;28;20024;-44
2021/03/11 09:21:36;;;;;;;2.40;0.82;;;;;;;7.35;44.01;93668.25;5113767;28;20022;-47
2021/03/11 09:24:03;;;;;;;0.77;0.70;;;;;;;8.25;43.74;93671.00;5113562;28;20101;-46
2021/03/11 09:26:33;;;;;;;0.95;0.88;;;;;;;8.31;42.91;93660.66;5113589;28;20034;-45
2021/03/11 09:28:59;;;;;;;1.42;1.17;;;;;;;8.95;42.97;93666.63;5113688;28;20030;-45
2021/03/11 09:31:26;;;;;;;1.05;0.88;;;;;;;9.07;43.16;93665.13;5113541;28;20023;-44
2021/03/11 09:33:54;;;;;;;1.80;0.68;;;;;;;8.44;43.08;93674.41;5113613;28;20019;-45
2021/03/11 09:36:19;;;;;;;2.03;1.67;;;;;;;7.72;43.79;93674.91;5113408;28;20102;-46
2021/03/11 09:38:45;;;;;;;2.17;1.58;;;;;;;7.45;45.45;93674.84;5113280;28;20506;-44
2021/03/11 09:41:11;;;;;;;1.30;1.10;;;;;;;7.21;46.97;93676.97;5113432;28;20028;-46
2021/03/11 09:43:38;;;;;;;0.55;0.55;;;;;;;7.83;43.92;93680.97;5113103;28;20049;-45
2021/03/11 09:46:16;;;;;;;2.38;1.27;;;;;;;7.91;44.35;93684.59;5113072;28;20129;-45
2021/03/11 09:48:44;;;;;;;0.73;0.60;;;;;;;6.87;45.43;93682.91;5113285;28;20019;-46
2021/03/11 09:51:16;;;;;;;0.60;0.60;;;;;;;6.46;47.88;93693.41;5113386;28;20033;-47
2021/03/11 09:53:50;;;;;;;1.27;0.98;;;;;;;6.44;48.12;93701.41;5113071;28;20063;-46
2021/03/11 09:56:24;;;;;;;1.02;0.77;;;;;;;6.32;47.03;93715.75;5113141;28;20118;-46
2021/03/11 09:58:51;;;;;;;1.50;1.17;;;;;;;6.44;47.42;93712.38;5113033;28;20028;-46
2021/03/11 10:01:35;;;;;;;4.97;0.85;;;;;;;6.48;48.00;93718.31;5112874;28;20033;-44
2021/03/11 10:04:11;;;;;;;0.75;0.75;;;;;;;6.88;48.23;93722.84;5112899;28;20030;-47
2021/03/11 10:06:37;;;;;;;1.83;1.38;;;;;;;7.02;46.64;93726.38;5113035;28;20031;-45
2021/03/11 10:09:03;;;;;;;0.77;0.77;;;;;;;6.88;45.45;93730.31;5094828;28;20019;-45
2021/03/11 10:11:41;;;;;;;0.88;0.75;;;;;;;6.84;47.65;93732.63;5112678;28;20020;-45
2021/03/11 10:14:26;;;;;;;0.70;0.70;;;;;;;7.02;46.74;93723.63;5112691;28;20024;-45
2021/03/11 10:17:02;;;;;;;1.08;1.08;;;;;;;7.26;44.80;93726.31;5094528;28;20468;-45
2021/03/11 10:19:27;;;;;;;0.90;0.70;;;;;;;6.79;47.05;93734.16;5112843;28;20084;-44
2021/03/11 10:22:07;;;;;;;0.77;0.55;;;;;;;6.45;49.56;93713.88;5112515;28;20023;-51
2021/03/11 10:24:32;;;;;;;2.17;1.92;;;;;;;7.82;46.58;93711.75;5112526;28;20478;-45
2021/03/11 10:26:58;;;;;;;0.80;0.75;;;;;;;9.19;43.21;93715.94;5112411;28;20027;-44
2021/03/11 10:29:28;;;;;;;1.25;0.80;;;;;;;10.04;41.51;93722.50;5112509;28;20057;-45
2021/03/11 10:32:04;;;;;;;3.33;1.35;;;;;;;10.16;39.56;93720.97;5112401;28;20118;-47
2021/03/11 10:34:30;;;;;;;1.25;1.15;;;;;;;9.89;43.08;93714.84;5112419;28;20055;-46
2021/03/11 10:37:00;;;;;;;1.17;1.00;;;;;;;11.38;39.71;93723.94;5112258;28;20097;-46
2021/03/11 10:39:26;;;;;;;1.83;0.63;;;;;;;11.27;36.28;93745.63;5112303;28;20080;-46
2021/03/11 10:42:02;;;;;;;1.17;1.13;;;;;;;10.97;38.11;93745.47;5112165;28;20024;-45
2021/03/11 10:44:30;;;;;;;0.88;0.88;;;;;;;12.59;35.87;93734.47;5111922;28;20052;-44
2021/03/11 10:47:14;;;;;;;1.55;1.13;;;;;;;12.65;35.08;93715.63;5112360;28;20016;-47
2021/03/11 10:49:41;;;;;;;1.33;1.23;;;;;;;11.08;35.92;93739.63;5112143;28;20027;-46
2021/03/11 10:52:07;;;;;;;3.60;0.90;;;;;;;10.12;38.14;93745.41;5112282;28;20019;-46
2021/03/11 10:54:32;;;;;;;0.90;0.90;;;;;;;9.20;39.30;93742.22;5112151;28;20088;-46
2021/03/11 10:57:08;;;;;;;0.70;0.70;;;;;;;8.55;42.24;93742.25;5111388;28;20401;-44
2021/03/11 10:59:51;;;;;;;1.60;1.27;;;;;;;9.11;44.22;93735.13;5111986;28;20420;-45
2021/03/11 11:02:17;;;;;;;1.02;1.00;;;;;;;9.28;40.36;93734.03;5112013;28;20034;-46
2021/03/11 11:04:43;;;;;;;1.55;1.38;;;;;;;9.18;41.52;93745.50;5111843;28;20024;-44
2021/03/11 11:07:09;;;;;;;0.63;0.63;;;;;;;8.79;41.73;93751.03;5112069;28;20020;-44
2021/03/11 11:09:35;;;;;;;0.70;0.70;;;;;;;8.74;39.62;93760.16;5111967;28;20110;-45
2021/03/11 11:12:00;;;;;;;1.38;0.75;;;;;;;8.44;41.16;93769.97;5111945;28;20059;-44
2021/03/11 11:14:26;;;;;;;0.38;0.38;;;;;;;7.61;41.17;93775.50;5111869;28;20067;-46
2021/03/11 11:16:51;;;;;;;4.07;1.98;;;;;;;6.07;46.02;93783.50;5111804;28;20028;-46
2021/03/11 11:19:17;;;;;;;1.02;0.95;;;;;;;6.13;48.18;93787.69;5111783;28;20038;-45
2021/03/11 11:21:42;;;;;;;2.72;1.95;;;;;;;6.19;46.89;93784.91;5111687;28;20020;-44
2021/03/11 11:24:08;;;;;;;3.35;1.05;;;;;;;5.81;51.28;93788.69;5111738;28;20390;-44
2021/03/11 11:26:33;;;;;;;0.98;0.88;;;;;;;6.05;49.36;93789.50;5111725;28;20420;-44
2021/03/11 11:28:59;;;;;;;0.60;0.60;;;;;;;5.95;51.48;93780.16;5111662;28;20136;-44
2021/03/11 11:31:24;;;;;;;1.05;1.00;;;;;;;6.18;51.44;93772.47;5111843;28;20495;-47
2021/03/11 11:33:50;;;;;;;0.98;0.98;;;;;;;6.54;49.83;93775.88;5111693;28;20031;-46
2021/03/11 11:36:15;;;;;;;2.00;0.98;;;;;;;7.29;47.16;93768.47;5111807;28;20032;-48
2021/03/11 11:38:41;;;;;;;0.73;0.73;;;;;;;7.48;46.54;93772.69;5111527;28;20031;-46
2021/03/11 11:41:06;;;;;;;2.63;2.30;;;;;;;7.39;47.32;93775.06;5111561;28;20023;-45
2021/03/11 11:43:32;;;;;;;0.80;0.80;;;;;;;7.87;45.72;93763.88;5111812;28;20416;-44